Terminal Aerodrome Forecast
Issued by NWS

Home | Current Version | Previous Version | Text Only | Print | Product List | Glossary Off
Versions: 1 2 3 4 5 6 7 8 9 10 11 12 13 14 15 16 17 18 19 20 21 22 23 24

000
FTUS43 KGRB 151700
TAFATW
TAF
KATW 151720Z 1518/1618 19004KT 1/4SM FG VV003
      TEMPO 1518/1520 1/2SM FG OVC003
     FM152000 18006KT 1SM BR OVC005
      TEMPO 1520/1524 2SM -RA BR OVC004
     FM160000 15006KT 1SM -RA BR OVC004
     FM160700 05005KT 1SM -RA BR OVC004
     FM161200 01007KT 2SM -RASN BR OVC007
     FM161500 35012KT 2SM -SN BR OVC007=

USA.gov is the U.S. government's official web portal to all federal, state and local government web resources and services.